Weather observations for the past three days for
Corinth
Metric (Imperial)
Date Time (cdt) Wind (kph) Vis. (km) Weather Sky Cond. Temperature (ºC) Relative Humidity Wind Chill (°C) Heat Index (°C) Pressure Precipitation (cm)
Air Dwpt 6 hour altimeter (cm) sea level (mb) 1 hr 3 hr 6 hr
Max. Min.
10 09:55 Calm 16.09 Fair CLR 23 20 83% 76.3 0.0
10 09:35 SE 7 16.09 Fair CLR 22 20 88% 76.28 0.0
10 09:15 E 7 16.09 Fair CLR 21 20 94% 76.28 0.0
10 08:55 Calm 16.09 Fair CLR 20 19 94% 76.28 0.0
10 08:35 Calm 16.09 Fair CLR 19 19 100% 76.25 0.0
10 08:15 Calm 16.09 Fair CLR 19 19 100% 76.25 0.0
10 07:55 SE 7 16.09 Fair CLR 18 18 100% 76.25 0.0
10 07:35 SE 7 14.48 Fair CLR 17 17 100% 76.25 0.0
10 07:15 S 11 11.27 A Few Clouds FEW002 16 16 100% 76.23 0.0
10 06:55 Calm 0.24 Fog OVC002 15 15 100% 76.23 0.0
10 06:35 S 6 0.24 Fog OVC002 14 14 100% 76.2 0.0
10 06:15 Calm 0.24 Fog OVC002 14 14 100% 76.15 0.0
10 05:55 Calm 0.24 Fog OVC002 14 14 100% 76.12 0.0
10 05:35 Calm 0.24 Fog OVC002 14 14 100% 76.12 0.0
10 05:15 Calm 0.24 Fog OVC001 15 15 100% 76.12 0.0
10 04:55 Calm 0.40 Fog BKN001 15 15 100% 76.1 0.0
10 04:35 Calm 0.40 Fog OVC002 15 15 100% 76.07 0.0
10 04:15 Calm 0.40 Fog BKN002 15 15 100% 76.07 0.0
10 03:55 Calm 0.80 Fog VV005 16 16 100% 76.05 0.0
10 03:35 Calm 4.83 Fog/Mist CLR 16 16 100% 76.07 0.0
10 03:15 Calm 0.80 Fog/Mist VV005 16 16 100% 76.05 0.0
10 02:55 Calm 2.01 Fog/Mist CLR 16 16 100% 76.05 0.0
10 02:35 Calm 0.24 Fog VV000 16 16 100% 76.05 0.0
10 02:15 Calm 2.41 Fog/Mist CLR 17 17 100% 76.02 0.0
10 01:55 Calm 16.09 Fair CLR 17 17 100% 76.02 0.0
10 01:35 SE 6 12.87 Fair CLR 16 16 100% 76.02 0.0
10 01:15 SE 9 16.09 Fair CLR 16 16 100% 76.02 0.0
10 00:55 Calm 16.09 Fair CLR 17 17 100% 76.02 0.0
10 00:35 Calm 16.09 Fair CLR 17 17 100% 76.02 0.0
10 00:15 Calm 16.09 Fair CLR 18 17 94% 76.02 0.0
09 23:55 S 7 16.09 Fair CLR 18 18 100% 76.02 0.0
09 23:35 S 9 16.09 Fair CLR 18 17 94% 76.02 0.0
09 23:15 S 9 16.09 Fair CLR 18 17 94% 76.02 0.0
09 22:55 S 9 16.09 Fair CLR 18 17 94% 76.02 0.0
09 22:35 S 9 16.09 Fair CLR 19 18 94% 76.05 0.0
09 22:15 S 6 16.09 Fair CLR 18 17 94% 76.05 0.0
09 21:55 Calm 16.09 Fair CLR 18 17 94% 76.02 0.0
09 21:35 Calm 16.09 Fair CLR 18 17 94% 76 0.0
09 21:15 S 6 16.09 Fair CLR 18 16 88% 75.97 0.0
09 20:55 Calm 16.09 Fair CLR 19 17 88% 75.95 0.0
09 20:35 Calm 16.09 Fair CLR 20 17 83% 75.9 0.0
09 20:15 Calm 16.09 Fair CLR 21 17 78% 75.87 0.0
09 19:55 Calm 16.09 Fair CLR 22 17 73% 75.84 0.0
09 19:35 Calm 16.09 Fair CLR 24 17 65% 25 75.82 0.0
09 19:15 Calm 16.09 Fair CLR 25 17 61% 26 75.82 0.0
09 18:55 SE 7 16.09 Fair CLR 26 16 54% 27 75.82 0.0
09 18:35 Calm 16.09 Fair CLR 26 13 45% 26 75.82 0.0
09 18:15 N 9 16.09 Fair CLR 27 12 39% 27 75.82 0.0
09 17:55 N 7 16.09 Fair CLR 27 12 39% 27 75.79 0.0
09 17:35 NE 9 16.09 Fair CLR 28 12 37% 27 75.79 0.0
09 17:15 N 9 16.09 Fair CLR 27 12 39% 27 75.77 0.0
09 16:55 Vrbl 6 16.09 Fair CLR 28 11 35% 27 75.77 0.0
09 16:35 N 6 16.09 Fair CLR 28 12 37% 27 75.79 0.0
09 16:15 Vrbl 11 G 24 16.09 A Few Clouds FEW070 28 11 35% 27 75.79 0.0
09 15:55 Calm 16.09 Fair CLR 28 11 35% 27 75.79 0.0
09 15:35 Calm 16.09 A Few Clouds FEW065 27 13 42% 27 75.82 0.0
09 15:15 Vrbl 11 16.09 A Few Clouds FEW070 27 13 42% 27 75.82 0.0
09 14:55 N 9 16.09 Fair CLR 27 14 45% 27 75.82 0.0
09 14:35 Calm 16.09 A Few Clouds FEW060 27 14 45% 27 75.82 0.0
09 14:15 Calm 16.09 A Few Clouds FEW055 FEW070 26 14 48% 26 75.82 0.0
09 13:55 Vrbl 13 G 26 16.09 A Few Clouds FEW055 FEW070 27 15 48% 27 75.82 0.0
09 13:35 Vrbl 7 G 19 16.09 A Few Clouds FEW055 26 14 48% 26 75.84 0.0
09 13:15 Vrbl 7 16.09 Fair CLR 26 14 48% 26 75.87 0.0
09 12:55 Calm 16.09 Fair CLR 25 14 51% 26 75.87 0.0
09 12:35 Calm 16.09 Fair CLR 25 14 51% 26 75.87 0.0
09 12:15 Vrbl 9 16.09 Fair CLR 25 15 54% 26 75.87 0.0
09 11:55 Calm 16.09 Fair CLR 24 16 61% 25 75.87 0.0
09 11:35 Vrbl 6 16.09 A Few Clouds FEW037 24 16 61% 25 75.9 0.0
09 11:15 SW 9 16.09 Fair CLR 23 16 65% 75.9 0.0
09 10:55 Calm 16.09 Fair CLR 23 16 65% 75.9 0.0
09 10:35 NW 11 16.09 Fair CLR 22 17 73% 75.87 0.0
09 10:15 W 6 G 19 16.09 Fair CLR 21 16 73% 75.84 0.0
09 09:55 Vrbl 7 16.09 Fair CLR 21 16 73% 75.84 0.0
09 09:35 W 9 16.09 Fair CLR 20 17 83% 75.87 0.0
09 09:15 Vrbl 6 16.09 Fair CLR 19 16 83% 75.87 0.0
09 08:55 Vrbl 7 16.09 Fair CLR 18 16 88% 75.84 0.0
09 08:35 SW 11 16.09 A Few Clouds FEW009 17 16 94% 75.84 0.0
09 08:15 SW 11 16.09 Mostly Cloudy BKN007 16 16 100% 75.84 0.0
09 07:55 S 6 16.09 Overcast OVC006 15 15 100% 75.87 0.0
09 07:35 S 7 16.09 Overcast OVC004 15 15 100% 75.87 0.0
09 07:15 S 7 16.09 Overcast OVC004 14 14 100% 75.84 0.0
09 06:55 Calm 14.48 Mostly Cloudy BKN005 13 13 100% 75.84 0.0
09 06:35 Calm 16.09 Fair CLR 13 13 100% 75.84 0.0
09 06:15 Calm 16.09 Fair CLR 12 12 100% 75.82 0.0
09 05:55 Calm 16.09 Fair CLR 12 12 100% 75.79 0.0
09 05:35 Calm 16.09 Fair CLR 12 12 100% 75.79 0.0
09 05:15 S 7 16.09 Fair CLR 12 12 100% 75.77 0.0
09 04:55 Calm 16.09 A Few Clouds FEW120 13 13 100% 75.79 0.0
09 04:35 Calm 16.09 Partly Cloudy SCT120 13 13 100% 75.79 0.0
09 04:15 Calm 16.09 Fair CLR 13 13 100% 75.79 0.0
09 03:55 S 7 16.09 Fair CLR 12 12 100% 75.79 0.0
09 03:35 S 11 16.09 Fair CLR 12 12 100% 75.77 0.0
09 03:15 Vrbl 7 16.09 Fair CLR 13 13 100% 75.79 0.0
09 02:55 S 7 16.09 Fair CLR 13 13 100% 75.82 0.0
09 02:35 S 9 16.09 Fair CLR 13 13 100% 75.77 0.0
09 02:15 SE 9 16.09 Fair CLR 12 12 100% 75.74 0.0
09 01:55 SE 11 16.09 Fair CLR 12 12 100% 75.79 0.0
09 01:30 S 7 16.09 Fair CLR 13 12 94% 75.84 0.0
09 01:15 Calm 16.09 Fair CLR 13 12 94% 75.87 0.0
09 00:55 S 7 16.09 Fair CLR 13 12 94% 75.87 0.0
09 00:35 S 9 16.09 Fair CLR 14 12 88% 75.87 0.0
09 00:15 S 7 16.09 Fair CLR 14 12 88% 75.9 0.0
08 23:55 S 11 16.09 Fair CLR 14 12 88% 75.87 0.0
08 23:35 S 7 16.09 Fair CLR 14 12 88% 75.9 0.0
08 23:15 S 6 16.09 Fair CLR 14 12 88% 75.87 0.0
08 22:55 S 9 16.09 Fair CLR 14 12 88% 75.87 0.0
08 22:35 SE 6 16.09 Fair CLR 15 12 82% 75.9 0.0
08 22:15 S 6 16.09 Fair CLR 15 12 82% 75.92 0.0
08 21:55 Calm 16.09 Fair CLR 16 12 77% 75.92 0.0
08 21:35 S 7 16.09 A Few Clouds FEW040 16 12 77% 75.92 0.0
08 21:15 S 7 16.09 Fair CLR 16 12 77% 75.92 0.0
08 20:55 S 7 16.09 Fair CLR 17 12 73% 75.92 0.0
08 20:35 S 9 16.09 Fair CLR 17 12 73% 75.9 0.0
08 20:15 S 11 16.09 Fair CLR 17 12 73% 75.87 0.0
08 19:55 S 11 16.09 Fair CLR 18 11 64% 75.87 0.0
08 19:35 S 11 16.09 Fair CLR 19 11 60% 75.87 0.0
08 19:15 S 13 16.09 Fair CLR 20 11 56% 75.87 0.0
08 18:55 S 17 16.09 Fair CLR 21 12 57% 75.87 0.0
08 18:35 S 15 16.09 Fair CLR 22 11 50% 75.87 0.0
08 18:10 Vrbl 11 16.09 Fair CLR 22 11 50% 75.87 0.0
08 17:55 S 13 16.09 Fair CLR 23 11 47% 75.9 0.0
08 17:35 S 19 G 30 16.09 Fair CLR 23 11 47% 75.9 0.0
08 17:15 S 17 G 26 16.09 Fair CLR 23 11 47% 75.9 0.0
08 16:55 S 19 16.09 Fair CLR 23 10 44% 75.9 0.0
08 16:35 S 17 G 28 16.09 Fair CLR 23 10 44% 75.92 0.0
08 16:15 S 19 16.09 Fair CLR 23 9 41% 75.95 0.0
08 15:55 S 15 G 28 16.09 Fair CLR 23 10 44% 75.92 0.0
08 15:35 S 15 16.09 Fair CLR 24 10 41% 25 75.92 0.0
08 15:15 S 20 16.09 Fair CLR 24 10 41% 25 75.95 0.0
08 14:55 SW 17 16.09 Fair CLR 23 9 41% 75.97 0.0
08 14:30 S 13 16.09 Fair CLR 23 9 41% 75.97 0.0
08 14:15 SE 13 G 22 16.09 Fair CLR 23 9 41% 76 0.0
08 13:55 E 11 G 20 16.09 Fair CLR 23 9 41% 76.02 0.0
08 13:35 S 15 16.09 Fair CLR 23 9 41% 76.05 0.0
08 13:15 S 15 16.09 Fair CLR 22 9 44% 76.07 0.0
08 12:55 Vrbl 9 G 22 16.09 Fair CLR 22 9 44% 76.1 0.0
08 12:35 Vrbl 7 G 19 16.09 Fair CLR 21 9 46% 76.12 0.0
08 12:15 Vrbl 9 16.09 Fair CLR 21 10 50% 76.17 0.0
08 11:55 Calm 16.09 Fair CLR 20 9 49% 76.2 0.0
08 11:35 SE 13 16.09 Fair CLR 20 8 46% 76.23 0.0
08 11:15 SE 15 16.09 Fair CLR 20 8 46% 76.28 0.0
08 10:55 S 15 16.09 Fair CLR 20 8 46% 76.28 0.0
08 10:35 E 9 G 20 16.09 Fair CLR 19 8 49% 76.28 0.0
08 10:15 SE 15 16.09 Fair CLR 19 8 49% 76.28 0.0
08 09:55 SE 13 16.09 Fair CLR 18 8 52% 76.3 0.0
08 09:35 SE 17 16.09 Fair CLR 18 10 60% 76.3 0.0
08 09:15 SE 15 16.09 Fair CLR 17 10 64% 76.3 0.0
08 08:55 SE 11 16.09 Fair CLR 16 10 68% 76.33 0.0
08 08:35 SE 9 16.09 Fair CLR 15 10 72% 76.35 0.0
08 08:15 SE 9 16.09 Fair CLR 13 11 88% 76.35 0.0
08 07:55 Calm 16.09 Fair CLR 11 11 100% 76.35 0.0
08 07:35 Calm 16.09 Fair CLR 11 11 100% 76.35 0.0
08 07:15 Calm 16.09 Fair CLR 10 10 100% 76.33 0.0
08 06:55 Calm 12.87 Fair CLR 9 9 100% 76.33 0.0
08 06:35 Calm 0.24 Fog OVC002 8 8 100% 76.3 0.0
08 06:15 Calm 0.24 Fog OVC002 8 8 100% 76.28 0.0
08 05:55 Calm 0.24 Fog OVC002 8 8 100% 76.28 0.0
08 05:35 Calm 0.40 Fog OVC002 8 8 100% 76.28 0.0
08 05:15 Calm 1.21 Fog/Mist OVC002 8 8 100% 76.25 0.0
08 04:55 Calm 1.21 Fog/Mist OVC002 8 8 100% 76.25 0.0
08 04:35 Calm 8.05 Fog/Mist OVC002 8 8 100% 76.23 0.0
08 04:15 Calm 14.48 Overcast OVC002 9 9 100% 76.23 0.0
08 03:55 Calm 6.44 Fog/Mist BKN002 9 9 100% 76.23 0.0
08 03:30 Calm 14.48 Mostly Cloudy BKN002 9 9 100% 76.2 0.0
08 03:15 Calm 14.48 Overcast OVC002 10 10 100% 76.2 0.0
08 02:55 Calm 8.05 Fog/Mist BKN002 10 10 100% 76.23 0.0
08 02:35 Calm 9.66 Fog/Mist OVC002 10 10 100% 76.23 0.0
08 02:15 Calm 11.27 Overcast OVC002 10 10 100% 76.23 0.0
08 01:55 Calm 16.09 Mostly Cloudy BKN002 10 10 100% 76.25 0.0
08 01:35 Calm 1.61 Fog/Mist CLR 10 10 100% 76.25 0.0
08 01:15 Calm 16.09 Fair CLR 11 11 100% 76.25 0.0
08 00:55 Calm 16.09 Fair CLR 11 11 100% 76.25 0.0
08 00:35 Calm 16.09 Fair CLR 11 11 100% 76.28 0.0
08 00:15 Calm 16.09 Fair CLR 11 11 100% 76.25 0.0
07 23:55 Calm 16.09 Fair CLR 11 11 100% 76.28 0.0
07 23:35 Calm 16.09 Fair CLR 11 11 100% 76.28 0.0
07 23:15 Calm 16.09 Fair CLR 12 11 94% 76.28 0.0
07 22:55 Calm 16.09 Fair CLR 12 11 94% 76.25 0.0
07 22:35 Calm 16.09 Fair CLR 12 12 100% 76.25 0.0
07 22:15 Calm 16.09 Fair CLR 13 12 94% 76.25 0.0
07 21:55 Calm 16.09 Fair CLR 13 11 88% 76.25 0.0
07 21:35 Calm 16.09 Fair CLR 13 12 94% 76.25 0.0
07 21:15 Calm 16.09 Fair CLR 14 12 88% 76.23 0.0
07 20:55 Calm 16.09 Fair CLR 14 11 82% 76.23 0.0
07 20:35 Calm 16.09 Fair CLR 15 11 77% 76.2 0.0
07 20:15 Calm 16.09 Fair CLR 15 10 72% 76.2 0.0
07 19:55 Calm 16.09 Fair CLR 16 9 63% 76.2 0.0
07 19:35 NW 7 16.09 Fair CLR 17 8 56% 76.17 0.0
07 19:15 NW 9 16.09 Fair CLR 18 8 52% 76.17 0.0
07 18:55 NW 9 16.09 Fair CLR 19 8 49% 76.15 0.0
07 18:35 NW 9 16.09 Fair CLR 19 8 49% 76.15 0.0
07 18:15 W 11 16.09 Fair CLR 19 7 46% 76.15 0.0
07 17:55 NW 11 16.09 Fair CLR 20 8 46% 76.15 0.0
07 17:35 W 7 G 19 16.09 Fair CLR 20 8 46% 76.15 0.0
07 17:15 NW 15 16.09 Fair CLR 20 8 46% 76.15 0.0
07 16:55 NW 7 16.09 Fair CLR 20 8 46% 76.15 0.0
07 16:30 Calm 16.09 Fair CLR 20 7 43% 76.15 0.0
07 16:15 NW 7 16.09 Fair CLR 20 8 46% 76.12 0.0
07 15:55 NW 9 G 19 16.09 Fair CLR 20 8 46% 76.15 0.0
07 15:35 Calm 16.09 Fair CLR 20 7 43% 76.17 0.0
07 15:15 W 13 16.09 Fair CLR 20 8 46% 76.17 0.0
07 14:55 N 13 16.09 Fair CLR 20 8 46% 76.2 0.0
07 14:35 Vrbl 9 G 22 16.09 Fair CLR 20 7 43% 76.2 0.0
07 14:15 N 19 16.09 Fair CLR 20 7 43% 76.2 0.0
07 13:55 N 15 G 26 16.09 Fair CLR 20 8 46% 76.2 0.0
07 13:35 N 15 16.09 Fair CLR 20 8 46% 76.2 0.0
07 13:15 N 17 16.09 Fair CLR 19 8 49% 76.23 0.0
07 12:55 N 19 16.09 Fair CLR 19 8 49% 76.23 0.0
07 12:35 Vrbl 7 G 20 16.09 Fair CLR 18 8 52% 76.25 0.0
07 12:15 Vrbl 11 16.09 Fair CLR 18 9 56% 76.25 0.0
07 11:55 N 13 16.09 Fair CLR 18 8 52% 76.28 0.0
07 11:35 N 13 G 22 16.09 Fair CLR 18 8 52% 76.3 0.0
07 11:15 NE 17 G 35 16.09 Fair CLR 17 8 56% 76.3 0.0
07 10:55 N 15 16.09 Fair CLR 17 8 56% 76.3 0.0
07 10:35 N 11 G 20 16.09 Fair CLR 17 9 60% 76.33 0.0
07 10:15 NE 17 16.09 Fair CLR 16 9 63% 76.33 0.0
Date Time (cdt) Wind (kph) Vis. (km) Weather Sky Cond. Air Dwpt Max. Min. Relative Humidity Wind Chill (°C) Heat Index (°C) altimeter (cm) sea level (mb) 1 hr 3 hr 6 hr
6 hour
Temperature (ºC) Pressure Precipitation (cm)